sensor_id;sensor_type;location;lat;lon;timestamp;P1;durP1;ratioP1;P2;durP2;ratioP2
16139;SDS011;8175;49.326;12.690;2022-07-06T00:01:29;2.30;;;1.50;;
16139;SDS011;8175;49.326;12.690;2022-07-06T00:03:55;2.03;;;1.83;;
16139;SDS011;8175;49.326;12.690;2022-07-06T00:06:20;1.60;;;1.50;;
16139;SDS011;8175;49.326;12.690;2022-07-06T00:08:46;1.70;;;1.60;;
16139;SDS011;8175;49.326;12.690;2022-07-06T00:11:12;1.80;;;1.70;;
16139;SDS011;8175;49.326;12.690;2022-07-06T00:13:38;1.63;;;1.53;;
16139;SDS011;8175;49.326;12.690;2022-07-06T00:16:04;3.17;;;1.87;;
16139;SDS011;8175;49.326;12.690;2022-07-06T00:18:29;1.60;;;1.50;;
16139;SDS011;8175;49.326;12.690;2022-07-06T00:20:55;2.17;;;1.90;;
16139;SDS011;8175;49.326;12.690;2022-07-06T00:23:21;2.20;;;1.97;;
16139;SDS011;8175;49.326;12.690;2022-07-06T00:25:47;2.47;;;2.13;;
16139;SDS011;8175;49.326;12.690;2022-07-06T00:28:13;1.70;;;1.60;;
16139;SDS011;8175;49.326;12.690;2022-07-06T00:30:39;1.50;;;1.40;;
16139;SDS011;8175;49.326;12.690;2022-07-06T00:33:05;1.70;;;1.60;;
16139;SDS011;8175;49.326;12.690;2022-07-06T00:35:31;1.70;;;1.60;;
16139;SDS011;8175;49.326;12.690;2022-07-06T00:37:57;1.63;;;1.53;;
16139;SDS011;8175;49.326;12.690;2022-07-06T00:40:23;1.70;;;1.60;;
16139;SDS011;8175;49.326;12.690;2022-07-06T00:42:49;1.70;;;1.60;;
16139;SDS011;8175;49.326;12.690;2022-07-06T00:45:15;1.63;;;1.53;;
16139;SDS011;8175;49.326;12.690;2022-07-06T00:47:42;1.90;;;1.80;;
16139;SDS011;8175;49.326;12.690;2022-07-06T00:50:10;2.23;;;2.00;;
16139;SDS011;8175;49.326;12.690;2022-07-06T00:52:41;1.83;;;1.73;;
16139;SDS011;8175;49.326;12.690;2022-07-06T00:55:10;2.03;;;1.93;;
16139;SDS011;8175;49.326;12.690;2022-07-06T00:57:37;2.60;;;1.80;;
16139;SDS011;8175;49.326;12.690;2022-07-06T01:00:04;2.10;;;2.00;;
16139;SDS011;8175;49.326;12.690;2022-07-06T01:02:32;1.97;;;1.73;;
16139;SDS011;8175;49.326;12.690;2022-07-06T01:04:59;3.87;;;1.90;;
16139;SDS011;8175;49.326;12.690;2022-07-06T01:07:25;2.10;;;1.90;;
16139;SDS011;8175;49.326;12.690;2022-07-06T01:09:52;2.10;;;2.00;;
16139;SDS011;8175;49.326;12.690;2022-07-06T01:12:18;2.20;;;2.00;;
16139;SDS011;8175;49.326;12.690;2022-07-06T01:14:44;2.33;;;2.13;;
16139;SDS011;8175;49.326;12.690;2022-07-06T01:17:10;2.80;;;2.00;;
16139;SDS011;8175;49.326;12.690;2022-07-06T01:19:37;2.43;;;2.23;;
16139;SDS011;8175;49.326;12.690;2022-07-06T01:22:03;2.07;;;1.97;;
16139;SDS011;8175;49.326;12.690;2022-07-06T01:24:29;2.30;;;2.10;;
16139;SDS011;8175;49.326;12.690;2022-07-06T01:26:54;2.47;;;2.27;;
16139;SDS011;8175;49.326;12.690;2022-07-06T01:29:20;2.13;;;1.93;;
16139;SDS011;8175;49.326;12.690;2022-07-06T01:31:47;2.30;;;2.20;;
16139;SDS011;8175;49.326;12.690;2022-07-06T01:34:14;2.17;;;1.97;;
16139;SDS011;8175;49.326;12.690;2022-07-06T01:36:42;2.60;;;2.30;;
16139;SDS011;8175;49.326;12.690;2022-07-06T01:39:08;2.60;;;2.40;;
16139;SDS011;8175;49.326;12.690;2022-07-06T01:41:34;2.37;;;2.20;;
16139;SDS011;8175;49.326;12.690;2022-07-06T01:44:00;2.10;;;2.00;;
16139;SDS011;8175;49.326;12.690;2022-07-06T01:46:25;2.17;;;2.03;;
16139;SDS011;8175;49.326;12.690;2022-07-06T01:48:51;2.57;;;2.37;;
16139;SDS011;8175;49.326;12.690;2022-07-06T01:51:17;2.27;;;2.17;;
16139;SDS011;8175;49.326;12.690;2022-07-06T01:53:43;2.70;;;2.50;;
16139;SDS011;8175;49.326;12.690;2022-07-06T01:56:09;2.47;;;2.20;;
16139;SDS011;8175;49.326;12.690;2022-07-06T01:58:35;2.77;;;2.30;;
16139;SDS011;8175;49.326;12.690;2022-07-06T02:01:12;2.37;;;2.27;;
16139;SDS011;8175;49.326;12.690;2022-07-06T02:03:40;2.27;;;2.13;;
16139;SDS011;8175;49.326;12.690;2022-07-06T02:06:06;3.10;;;2.47;;
16139;SDS011;8175;49.326;12.690;2022-07-06T02:08:33;3.30;;;2.20;;
16139;SDS011;8175;49.326;12.690;2022-07-06T02:10:59;3.13;;;2.93;;
16139;SDS011;8175;49.326;12.690;2022-07-06T02:13:26;3.33;;;2.50;;
16139;SDS011;8175;49.326;12.690;2022-07-06T02:15:51;3.97;;;2.83;;
16139;SDS011;8175;49.326;12.690;2022-07-06T02:18:17;3.00;;;2.80;;
16139;SDS011;8175;49.326;12.690;2022-07-06T02:20:43;3.10;;;2.80;;
16139;SDS011;8175;49.326;12.690;2022-07-06T02:23:09;2.73;;;2.53;;
16139;SDS011;8175;49.326;12.690;2022-07-06T02:25:34;3.63;;;2.53;;
16139;SDS011;8175;49.326;12.690;2022-07-06T02:28:00;3.00;;;2.80;;
16139;SDS011;8175;49.326;12.690;2022-07-06T02:30:26;2.87;;;2.63;;
16139;SDS011;8175;49.326;12.690;2022-07-06T02:32:51;2.87;;;2.70;;
16139;SDS011;8175;49.326;12.690;2022-07-06T02:35:17;3.20;;;2.90;;
16139;SDS011;8175;49.326;12.690;2022-07-06T02:37:42;5.10;;;2.90;;
16139;SDS011;8175;49.326;12.690;2022-07-06T02:40:08;3.60;;;3.30;;
16139;SDS011;8175;49.326;12.690;2022-07-06T02:42:35;2.97;;;2.70;;
16139;SDS011;8175;49.326;12.690;2022-07-06T02:45:00;3.13;;;2.93;;
16139;SDS011;8175;49.326;12.690;2022-07-06T02:47:26;2.97;;;2.73;;
16139;SDS011;8175;49.326;12.690;2022-07-06T02:49:52;3.37;;;3.00;;
16139;SDS011;8175;49.326;12.690;2022-07-06T02:52:18;4.10;;;3.33;;
16139;SDS011;8175;49.326;12.690;2022-07-06T02:54:44;3.27;;;2.97;;
16139;SDS011;8175;49.326;12.690;2022-07-06T02:57:10;3.20;;;3.00;;
16139;SDS011;8175;49.326;12.690;2022-07-06T02:59:36;4.47;;;3.77;;
16139;SDS011;8175;49.326;12.690;2022-07-06T03:02:04;3.27;;;2.97;;
16139;SDS011;8175;49.326;12.690;2022-07-06T03:04:30;3.47;;;3.17;;
16139;SDS011;8175;49.326;12.690;2022-07-06T03:06:56;3.10;;;2.90;;
16139;SDS011;8175;49.326;12.690;2022-07-06T03:09:21;3.27;;;2.97;;
16139;SDS011;8175;49.326;12.690;2022-07-06T03:11:47;3.13;;;2.90;;
16139;SDS011;8175;49.326;12.690;2022-07-06T03:14:13;3.27;;;3.00;;
16139;SDS011;8175;49.326;12.690;2022-07-06T03:16:38;3.37;;;3.17;;
16139;SDS011;8175;49.326;12.690;2022-07-06T03:19:04;3.03;;;2.73;;
16139;SDS011;8175;49.326;12.690;2022-07-06T03:21:29;3.90;;;3.00;;
16139;SDS011;8175;49.326;12.690;2022-07-06T03:23:55;3.03;;;2.83;;
16139;SDS011;8175;49.326;12.690;2022-07-06T03:26:21;3.03;;;2.73;;
16139;SDS011;8175;49.326;12.690;2022-07-06T03:28:46;3.67;;;3.20;;
16139;SDS011;8175;49.326;12.690;2022-07-06T03:31:12;3.13;;;2.93;;
16139;SDS011;8175;49.326;12.690;2022-07-06T03:33:37;3.07;;;2.87;;
16139;SDS011;8175;49.326;12.690;2022-07-06T03:36:03;2.93;;;2.73;;
16139;SDS011;8175;49.326;12.690;2022-07-06T03:38:30;3.13;;;2.93;;
16139;SDS011;8175;49.326;12.690;2022-07-06T03:40:56;3.30;;;3.00;;
16139;SDS011;8175;49.326;12.690;2022-07-06T03:43:21;3.30;;;3.00;;
16139;SDS011;8175;49.326;12.690;2022-07-06T03:45:47;4.30;;;3.17;;
16139;SDS011;8175;49.326;12.690;2022-07-06T03:48:13;3.70;;;3.40;;
16139;SDS011;8175;49.326;12.690;2022-07-06T03:50:38;3.43;;;3.13;;
16139;SDS011;8175;49.326;12.690;2022-07-06T03:53:04;3.50;;;3.30;;
16139;SDS011;8175;49.326;12.690;2022-07-06T03:55:30;3.50;;;3.20;;
16139;SDS011;8175;49.326;12.690;2022-07-06T03:57:56;3.60;;;3.30;;
16139;SDS011;8175;49.326;12.690;2022-07-06T04:00:21;4.13;;;3.50;;
16139;SDS011;8175;49.326;12.690;2022-07-06T04:02:47;3.40;;;3.20;;
16139;SDS011;8175;49.326;12.690;2022-07-06T04:05:13;3.23;;;3.03;;
16139;SDS011;8175;49.326;12.690;2022-07-06T04:07:39;3.23;;;3.03;;
16139;SDS011;8175;49.326;12.690;2022-07-06T04:10:04;3.73;;;3.43;;
16139;SDS011;8175;49.326;12.690;2022-07-06T04:12:30;3.13;;;2.83;;
16139;SDS011;8175;49.326;12.690;2022-07-06T04:14:56;3.50;;;3.30;;
16139;SDS011;8175;49.326;12.690;2022-07-06T04:17:22;3.50;;;3.30;;
16139;SDS011;8175;49.326;12.690;2022-07-06T04:20:07;3.70;;;3.40;;
16139;SDS011;8175;49.326;12.690;2022-07-06T04:22:36;3.73;;;3.43;;
16139;SDS011;8175;49.326;12.690;2022-07-06T04:25:03;4.10;;;3.73;;
16139;SDS011;8175;49.326;12.690;2022-07-06T04:27:29;3.93;;;3.63;;
16139;SDS011;8175;49.326;12.690;2022-07-06T04:29:55;3.83;;;3.53;;
16139;SDS011;8175;49.326;12.690;2022-07-06T04:32:21;3.23;;;3.03;;
16139;SDS011;8175;49.326;12.690;2022-07-06T04:34:46;3.43;;;3.20;;
16139;SDS011;8175;49.326;12.690;2022-07-06T04:37:12;4.07;;;3.67;;
16139;SDS011;8175;49.326;12.690;2022-07-06T04:39:37;5.97;;;4.00;;
16139;SDS011;8175;49.326;12.690;2022-07-06T04:42:03;4.30;;;4.00;;
16139;SDS011;8175;49.326;12.690;2022-07-06T04:44:29;3.70;;;3.40;;
16139;SDS011;8175;49.326;12.690;2022-07-06T04:46:54;3.80;;;3.50;;
16139;SDS011;8175;49.326;12.690;2022-07-06T04:49:20;4.30;;;3.30;;
16139;SDS011;8175;49.326;12.690;2022-07-06T04:51:46;3.43;;;3.23;;
16139;SDS011;8175;49.326;12.690;2022-07-06T04:54:11;3.70;;;3.40;;
16139;SDS011;8175;49.326;12.690;2022-07-06T04:56:37;3.83;;;3.53;;
16139;SDS011;8175;49.326;12.690;2022-07-06T04:59:02;3.23;;;3.03;;
16139;SDS011;8175;49.326;12.690;2022-07-06T05:01:28;3.40;;;3.10;;
16139;SDS011;8175;49.326;12.690;2022-07-06T05:03:54;3.40;;;3.20;;
16139;SDS011;8175;49.326;12.690;2022-07-06T05:06:19;3.10;;;2.90;;
16139;SDS011;8175;49.326;12.690;2022-07-06T05:08:45;3.33;;;3.13;;
16139;SDS011;8175;49.326;12.690;2022-07-06T05:11:11;3.60;;;3.30;;
16139;SDS011;8175;49.326;12.690;2022-07-06T05:13:37;3.27;;;3.00;;
16139;SDS011;8175;49.326;12.690;2022-07-06T05:16:02;3.47;;;3.17;;
16139;SDS011;8175;49.326;12.690;2022-07-06T05:18:28;3.90;;;3.13;;
16139;SDS011;8175;49.326;12.690;2022-07-06T05:20:55;3.87;;;3.57;;
16139;SDS011;8175;49.326;12.690;2022-07-06T05:23:20;3.33;;;3.03;;
16139;SDS011;8175;49.326;12.690;2022-07-06T05:25:46;3.20;;;3.00;;
16139;SDS011;8175;49.326;12.690;2022-07-06T05:28:12;3.30;;;3.10;;
16139;SDS011;8175;49.326;12.690;2022-07-06T05:30:38;2.90;;;2.70;;
16139;SDS011;8175;49.326;12.690;2022-07-06T05:33:03;3.93;;;3.63;;
16139;SDS011;8175;49.326;12.690;2022-07-06T05:35:29;3.47;;;2.77;;
16139;SDS011;8175;49.326;12.690;2022-07-06T05:37:55;3.57;;;3.27;;
16139;SDS011;8175;49.326;12.690;2022-07-06T05:40:20;3.23;;;2.93;;
16139;SDS011;8175;49.326;12.690;2022-07-06T05:42:46;4.63;;;2.93;;
16139;SDS011;8175;49.326;12.690;2022-07-06T05:45:12;3.27;;;3.07;;
16139;SDS011;8175;49.326;12.690;2022-07-06T05:47:38;4.07;;;2.97;;
16139;SDS011;8175;49.326;12.690;2022-07-06T05:50:22;2.93;;;2.73;;
16139;SDS011;8175;49.326;12.690;2022-07-06T05:53:00;3.07;;;2.87;;
16139;SDS011;8175;49.326;12.690;2022-07-06T05:55:27;3.30;;;3.00;;
16139;SDS011;8175;49.326;12.690;2022-07-06T05:57:53;3.90;;;2.93;;
16139;SDS011;8175;49.326;12.690;2022-07-06T06:00:20;3.70;;;2.90;;
16139;SDS011;8175;49.326;12.690;2022-07-06T06:02:50;3.53;;;3.23;;
16139;SDS011;8175;49.326;12.690;2022-07-06T06:05:16;3.83;;;3.43;;
16139;SDS011;8175;49.326;12.690;2022-07-06T06:07:43;3.50;;;3.20;;
16139;SDS011;8175;49.326;12.690;2022-07-06T06:10:11;5.47;;;3.30;;
16139;SDS011;8175;49.326;12.690;2022-07-06T06:12:38;3.07;;;2.87;;
16139;SDS011;8175;49.326;12.690;2022-07-06T06:15:05;3.40;;;3.10;;
16139;SDS011;8175;49.326;12.690;2022-07-06T06:17:32;3.30;;;3.00;;
16139;SDS011;8175;49.326;12.690;2022-07-06T06:19:58;4.40;;;2.80;;
16139;SDS011;8175;49.326;12.690;2022-07-06T06:22:24;3.17;;;2.97;;
16139;SDS011;8175;49.326;12.690;2022-07-06T06:24:50;2.83;;;2.63;;
16139;SDS011;8175;49.326;12.690;2022-07-06T06:27:16;3.40;;;2.70;;
16139;SDS011;8175;49.326;12.690;2022-07-06T06:29:42;2.80;;;2.60;;
16139;SDS011;8175;49.326;12.690;2022-07-06T06:32:09;2.93;;;2.73;;
16139;SDS011;8175;49.326;12.690;2022-07-06T06:34:36;3.17;;;2.47;;
16139;SDS011;8175;49.326;12.690;2022-07-06T06:37:02;3.77;;;2.77;;
16139;SDS011;8175;49.326;12.690;2022-07-06T06:39:27;3.30;;;3.00;;
16139;SDS011;8175;49.326;12.690;2022-07-06T06:41:53;2.90;;;2.70;;
16139;SDS011;8175;49.326;12.690;2022-07-06T06:44:19;3.03;;;2.83;;
16139;SDS011;8175;49.326;12.690;2022-07-06T06:46:47;2.80;;;2.60;;
16139;SDS011;8175;49.326;12.690;2022-07-06T06:49:14;3.00;;;2.80;;
16139;SDS011;8175;49.326;12.690;2022-07-06T06:51:39;3.23;;;2.40;;
16139;SDS011;8175;49.326;12.690;2022-07-06T06:54:05;4.70;;;2.77;;
16139;SDS011;8175;49.326;12.690;2022-07-06T06:56:30;3.00;;;2.63;;
16139;SDS011;8175;49.326;12.690;2022-07-06T06:58:56;2.77;;;2.57;;
16139;SDS011;8175;49.326;12.690;2022-07-06T07:01:22;3.83;;;3.20;;
16139;SDS011;8175;49.326;12.690;2022-07-06T07:03:48;4.17;;;2.87;;
16139;SDS011;8175;49.326;12.690;2022-07-06T07:06:15;3.30;;;3.00;;
16139;SDS011;8175;49.326;12.690;2022-07-06T07:08:41;4.10;;;3.00;;
16139;SDS011;8175;49.326;12.690;2022-07-06T07:11:06;2.83;;;2.63;;
16139;SDS011;8175;49.326;12.690;2022-07-06T07:13:32;3.03;;;2.83;;
16139;SDS011;8175;49.326;12.690;2022-07-06T07:15:57;3.20;;;3.00;;
16139;SDS011;8175;49.326;12.690;2022-07-06T07:18:23;3.40;;;3.10;;
16139;SDS011;8175;49.326;12.690;2022-07-06T07:20:49;3.83;;;3.17;;
16139;SDS011;8175;49.326;12.690;2022-07-06T07:23:14;3.63;;;2.93;;
16139;SDS011;8175;49.326;12.690;2022-07-06T07:25:40;4.83;;;3.00;;
16139;SDS011;8175;49.326;12.690;2022-07-06T07:28:06;3.97;;;2.97;;
16139;SDS011;8175;49.326;12.690;2022-07-06T07:30:31;2.77;;;2.57;;
16139;SDS011;8175;49.326;12.690;2022-07-06T07:32:57;3.73;;;3.00;;
16139;SDS011;8175;49.326;12.690;2022-07-06T07:35:25;3.73;;;2.97;;
16139;SDS011;8175;49.326;12.690;2022-07-06T07:37:51;2.77;;;2.57;;
16139;SDS011;8175;49.326;12.690;2022-07-06T07:40:16;2.85;;;2.20;;
16139;SDS011;8175;49.326;12.690;2022-07-06T07:42:42;3.53;;;2.50;;
16139;SDS011;8175;49.326;12.690;2022-07-06T07:45:09;2.92;;;2.65;;
16139;SDS011;8175;49.326;12.690;2022-07-06T07:47:35;2.42;;;2.20;;
16139;SDS011;8175;49.326;12.690;2022-07-06T07:50:00;2.53;;;2.30;;
16139;SDS011;8175;49.326;12.690;2022-07-06T07:52:26;4.07;;;2.67;;
16139;SDS011;8175;49.326;12.690;2022-07-06T07:54:52;2.42;;;2.17;;
16139;SDS011;8175;49.326;12.690;2022-07-06T07:57:17;2.65;;;2.10;;
16139;SDS011;8175;49.326;12.690;2022-07-06T07:59:43;1.88;;;1.75;;
16139;SDS011;8175;49.326;12.690;2022-07-06T08:02:09;2.42;;;2.20;;
16139;SDS011;8175;49.326;12.690;2022-07-06T08:04:34;2.28;;;2.10;;
16139;SDS011;8175;49.326;12.690;2022-07-06T08:07:00;2.60;;;2.38;;
16139;SDS011;8175;49.326;12.690;2022-07-06T08:09:26;2.38;;;2.17;;
16139;SDS011;8175;49.326;12.690;2022-07-06T08:11:51;2.38;;;2.17;;
16139;SDS011;8175;49.326;12.690;2022-07-06T08:14:17;2.42;;;2.22;;
16139;SDS011;8175;49.326;12.690;2022-07-06T08:16:43;2.85;;;2.65;;
16139;SDS011;8175;49.326;12.690;2022-07-06T08:19:08;2.83;;;2.40;;
16139;SDS011;8175;49.326;12.690;2022-07-06T08:21:38;2.33;;;2.20;;
16139;SDS011;8175;49.326;12.690;2022-07-06T08:24:04;2.30;;;2.10;;
16139;SDS011;8175;49.326;12.690;2022-07-06T08:26:30;2.50;;;2.22;;
16139;SDS011;8175;49.326;12.690;2022-07-06T08:28:56;2.72;;;2.53;;
16139;SDS011;8175;49.326;12.690;2022-07-06T08:31:21;3.47;;;2.03;;
16139;SDS011;8175;49.326;12.690;2022-07-06T08:33:47;2.58;;;1.90;;
16139;SDS011;8175;49.326;12.690;2022-07-06T08:36:13;2.50;;;2.05;;
16139;SDS011;8175;49.326;12.690;2022-07-06T08:38:39;2.50;;;2.30;;
16139;SDS011;8175;49.326;12.690;2022-07-06T08:41:05;3.03;;;2.25;;
16139;SDS011;8175;49.326;12.690;2022-07-06T08:43:32;4.93;;;2.40;;
16139;SDS011;8175;49.326;12.690;2022-07-06T08:45:59;2.72;;;2.20;;
16139;SDS011;8175;49.326;12.690;2022-07-06T08:48:26;2.10;;;2.00;;
16139;SDS011;8175;49.326;12.690;2022-07-06T08:50:54;2.15;;;2.05;;
16139;SDS011;8175;49.326;12.690;2022-07-06T08:53:21;1.70;;;1.60;;
16139;SDS011;8175;49.326;12.690;2022-07-06T08:55:48;2.10;;;1.90;;
16139;SDS011;8175;49.326;12.690;2022-07-06T08:58:15;2.30;;;2.10;;
16139;SDS011;8175;49.326;12.690;2022-07-06T09:00:41;1.85;;;1.70;;
16139;SDS011;8175;49.326;12.690;2022-07-06T09:03:08;2.22;;;2.03;;
16139;SDS011;8175;49.326;12.690;2022-07-06T09:05:37;1.88;;;1.77;;
16139;SDS011;8175;49.326;12.690;2022-07-06T09:08:04;2.40;;;2.00;;
16139;SDS011;8175;49.326;12.690;2022-07-06T09:10:30;2.15;;;1.85;;
16139;SDS011;8175;49.326;12.690;2022-07-06T09:13:03;1.88;;;1.63;;
16139;SDS011;8175;49.326;12.690;2022-07-06T09:15:33;1.75;;;1.63;;
16139;SDS011;8175;49.326;12.690;2022-07-06T09:17:59;1.60;;;1.45;;
16139;SDS011;8175;49.326;12.690;2022-07-06T09:20:25;1.95;;;1.58;;
16139;SDS011;8175;49.326;12.690;2022-07-06T09:22:53;2.10;;;1.65;;
16139;SDS011;8175;49.326;12.690;2022-07-06T09:25:23;1.48;;;1.25;;
16139;SDS011;8175;49.326;12.690;2022-07-06T09:27:50;3.00;;;1.60;;
16139;SDS011;8175;49.326;12.690;2022-07-06T09:30:19;2.13;;;1.60;;
16139;SDS011;8175;49.326;12.690;2022-07-06T09:32:48;1.60;;;1.50;;
16139;SDS011;8175;49.326;12.690;2022-07-06T09:40:26;1.50;;;1.40;;
16139;SDS011;8175;49.326;12.690;2022-07-06T09:42:57;1.95;;;1.40;;
16139;SDS011;8175;49.326;12.690;2022-07-06T09:45:43;1.40;;;1.30;;
16139;SDS011;8175;49.326;12.690;2022-07-06T09:50:48;2.13;;;1.80;;
16139;SDS011;8175;49.326;12.690;2022-07-06T09:53:19;1.25;;;1.15;;
16139;SDS011;8175;49.326;12.690;2022-07-06T09:55:46;1.52;;;1.30;;
16139;SDS011;8175;49.326;12.690;2022-07-06T09:58:14;1.25;;;1.17;;
16139;SDS011;8175;49.326;12.690;2022-07-06T10:00:40;1.35;;;1.20;;
16139;SDS011;8175;49.326;12.690;2022-07-06T10:03:10;1.40;;;1.30;;
16139;SDS011;8175;49.326;12.690;2022-07-06T10:05:37;1.70;;;1.23;;
16139;SDS011;8175;49.326;12.690;2022-07-06T10:08:04;1.65;;;1.38;;
16139;SDS011;8175;49.326;12.690;2022-07-06T10:10:34;1.30;;;1.20;;
16139;SDS011;8175;49.326;12.690;2022-07-06T10:13:00;1.30;;;1.20;;
16139;SDS011;8175;49.326;12.690;2022-07-06T10:15:28;4.35;;;1.33;;
16139;SDS011;8175;49.326;12.690;2022-07-06T10:17:58;1.30;;;1.20;;
16139;SDS011;8175;49.326;12.690;2022-07-06T10:20:29;1.50;;;1.10;;
16139;SDS011;8175;49.326;12.690;2022-07-06T10:22:58;3.03;;;1.40;;
16139;SDS011;8175;49.326;12.690;2022-07-06T10:25:26;1.67;;;1.10;;
16139;SDS011;8175;49.326;12.690;2022-07-06T10:27:52;1.40;;;1.30;;
16139;SDS011;8175;49.326;12.690;2022-07-06T10:30:18;1.20;;;1.10;;
16139;SDS011;8175;49.326;12.690;2022-07-06T10:32:46;1.23;;;1.13;;
16139;SDS011;8175;49.326;12.690;2022-07-06T10:35:15;1.02;;;0.93;;
16139;SDS011;8175;49.326;12.690;2022-07-06T10:37:43;1.10;;;1.00;;
16139;SDS011;8175;49.326;12.690;2022-07-06T10:40:09;1.20;;;1.10;;
16139;SDS011;8175;49.326;12.690;2022-07-06T10:43:02;1.75;;;1.30;;
16139;SDS011;8175;49.326;12.690;2022-07-06T10:53:11;1.02;;;1.00;;
16139;SDS011;8175;49.326;12.690;2022-07-06T10:55:40;1.25;;;1.15;;
16139;SDS011;8175;49.326;12.690;2022-07-06T10:58:12;1.30;;;1.20;;
16139;SDS011;8175;49.326;12.690;2022-07-06T11:00:51;1.48;;;1.08;;
16139;SDS011;8175;49.326;12.690;2022-07-06T11:06:05;1.33;;;1.23;;
16139;SDS011;8175;49.326;12.690;2022-07-06T11:11:21;2.55;;;1.10;;
16139;SDS011;8175;49.326;12.690;2022-07-06T11:14:01;1.63;;;1.20;;
16139;SDS011;8175;49.326;12.690;2022-07-06T11:16:27;1.42;;;1.33;;
16139;SDS011;8175;49.326;12.690;2022-07-06T11:18:59;1.48;;;1.38;;
16139;SDS011;8175;49.326;12.690;2022-07-06T11:22:10;1.95;;;1.27;;
16139;SDS011;8175;49.326;12.690;2022-07-06T11:24:18;2.55;;;1.27;;
16139;SDS011;8175;49.326;12.690;2022-07-06T11:26:45;1.20;;;1.10;;
16139;SDS011;8175;49.326;12.690;2022-07-06T11:29:13;1.63;;;1.20;;
16139;SDS011;8175;49.326;12.690;2022-07-06T11:31:41;1.30;;;1.20;;
16139;SDS011;8175;49.326;12.690;2022-07-06T11:34:08;1.92;;;1.40;;
16139;SDS011;8175;49.326;12.690;2022-07-06T11:36:35;1.30;;;1.20;;
16139;SDS011;8175;49.326;12.690;2022-07-06T11:39:03;2.15;;;1.33;;
16139;SDS011;8175;49.326;12.690;2022-07-06T11:41:30;2.58;;;1.00;;
16139;SDS011;8175;49.326;12.690;2022-07-06T11:43:56;2.55;;;1.00;;
16139;SDS011;8175;49.326;12.690;2022-07-06T11:46:26;1.65;;;1.08;;
16139;SDS011;8175;49.326;12.690;2022-07-06T11:48:54;1.42;;;1.33;;
16139;SDS011;8175;49.326;12.690;2022-07-06T11:51:26;1.30;;;1.20;;
16139;SDS011;8175;49.326;12.690;2022-07-06T11:53:56;1.13;;;1.10;;
16139;SDS011;8175;49.326;12.690;2022-07-06T11:56:26;2.05;;;1.25;;
16139;SDS011;8175;49.326;12.690;2022-07-06T11:58:54;0.90;;;0.90;;
16139;SDS011;8175;49.326;12.690;2022-07-06T12:01:24;1.75;;;1.17;;
16139;SDS011;8175;49.326;12.690;2022-07-06T12:03:52;1.13;;;1.10;;
16139;SDS011;8175;49.326;12.690;2022-07-06T12:06:19;2.60;;;1.17;;
16139;SDS011;8175;49.326;12.690;2022-07-06T12:08:51;1.30;;;1.20;;
16139;SDS011;8175;49.326;12.690;2022-07-06T12:11:22;1.73;;;1.27;;
16139;SDS011;8175;49.326;12.690;2022-07-06T12:13:50;2.20;;;0.82;;
16139;SDS011;8175;49.326;12.690;2022-07-06T12:16:16;2.88;;;1.10;;
16139;SDS011;8175;49.326;12.690;2022-07-06T12:18:43;1.20;;;1.10;;
16139;SDS011;8175;49.326;12.690;2022-07-06T12:21:12;1.58;;;1.23;;
16139;SDS011;8175;49.326;12.690;2022-07-06T12:23:44;3.85;;;1.55;;
16139;SDS011;8175;49.326;12.690;2022-07-06T12:26:11;1.20;;;1.10;;
16139;SDS011;8175;49.326;12.690;2022-07-06T12:28:39;1.40;;;1.23;;
16139;SDS011;8175;49.326;12.690;2022-07-06T12:31:05;1.52;;;1.33;;
16139;SDS011;8175;49.326;12.690;2022-07-06T12:33:31;1.80;;;1.15;;
16139;SDS011;8175;49.326;12.690;2022-07-06T12:35:57;2.63;;;1.20;;
16139;SDS011;8175;49.326;12.690;2022-07-06T12:38:43;1.23;;;1.00;;
16139;SDS011;8175;49.326;12.690;2022-07-06T12:41:10;1.27;;;1.17;;
16139;SDS011;8175;49.326;12.690;2022-07-06T12:43:48;2.90;;;1.30;;
16139;SDS011;8175;49.326;12.690;2022-07-06T12:46:25;1.40;;;1.23;;
16139;SDS011;8175;49.326;12.690;2022-07-06T12:48:55;1.40;;;1.27;;
16139;SDS011;8175;49.326;12.690;2022-07-06T12:51:21;1.17;;;1.08;;
16139;SDS011;8175;49.326;12.690;2022-07-06T12:53:47;1.40;;;1.00;;
16139;SDS011;8175;49.326;12.690;2022-07-06T12:56:14;1.95;;;1.40;;
16139;SDS011;8175;49.326;12.690;2022-07-06T12:58:54;1.23;;;1.13;;
16139;SDS011;8175;49.326;12.690;2022-07-06T13:01:23;1.42;;;1.17;;
16139;SDS011;8175;49.326;12.690;2022-07-06T13:03:53;1.70;;;1.00;;
16139;SDS011;8175;49.326;12.690;2022-07-06T13:06:29;1.13;;;1.13;;
16139;SDS011;8175;49.326;12.690;2022-07-06T13:08:57;0.93;;;0.93;;
16139;SDS011;8175;49.326;12.690;2022-07-06T13:11:22;1.20;;;1.08;;
16139;SDS011;8175;49.326;12.690;2022-07-06T13:13:48;1.85;;;1.15;;
16139;SDS011;8175;49.326;12.690;2022-07-06T13:16:14;1.13;;;1.02;;
16139;SDS011;8175;49.326;12.690;2022-07-06T13:18:40;2.35;;;1.27;;
16139;SDS011;8175;49.326;12.690;2022-07-06T13:21:05;1.10;;;1.00;;
16139;SDS011;8175;49.326;12.690;2022-07-06T13:23:31;1.27;;;1.08;;
16139;SDS011;8175;49.326;12.690;2022-07-06T13:25:57;1.52;;;1.13;;
16139;SDS011;8175;49.326;12.690;2022-07-06T13:28:23;2.80;;;1.45;;
16139;SDS011;8175;49.326;12.690;2022-07-06T13:30:48;2.30;;;1.30;;
16139;SDS011;8175;49.326;12.690;2022-07-06T13:33:14;3.67;;;1.10;;
16139;SDS011;8175;49.326;12.690;2022-07-06T13:35:40;2.42;;;1.20;;
16139;SDS011;8175;49.326;12.690;2022-07-06T13:38:05;1.83;;;1.17;;
16139;SDS011;8175;49.326;12.690;2022-07-06T13:40:31;1.35;;;1.10;;
16139;SDS011;8175;49.326;12.690;2022-07-06T13:42:59;1.73;;;1.10;;
16139;SDS011;8175;49.326;12.690;2022-07-06T13:45:25;1.27;;;0.95;;
16139;SDS011;8175;49.326;12.690;2022-07-06T13:47:51;2.25;;;1.30;;
16139;SDS011;8175;49.326;12.690;2022-07-06T13:50:16;1.45;;;1.13;;
16139;SDS011;8175;49.326;12.690;2022-07-06T13:52:42;2.70;;;1.10;;
16139;SDS011;8175;49.326;12.690;2022-07-06T13:55:08;1.58;;;1.05;;
16139;SDS011;8175;49.326;12.690;2022-07-06T13:57:34;2.50;;;1.30;;
16139;SDS011;8175;49.326;12.690;2022-07-06T14:00:00;2.40;;;1.40;;
16139;SDS011;8175;49.326;12.690;2022-07-06T14:02:27;2.10;;;1.40;;
16139;SDS011;8175;49.326;12.690;2022-07-06T14:04:52;3.88;;;1.67;;
16139;SDS011;8175;49.326;12.690;2022-07-06T14:07:18;2.60;;;2.40;;
16139;SDS011;8175;49.326;12.690;2022-07-06T14:09:43;2.03;;;1.80;;
16139;SDS011;8175;49.326;12.690;2022-07-06T14:12:09;1.70;;;1.60;;
16139;SDS011;8175;49.326;12.690;2022-07-06T14:14:35;1.92;;;1.83;;
16139;SDS011;8175;49.326;12.690;2022-07-06T14:17:00;2.60;;;1.85;;
16139;SDS011;8175;49.326;12.690;2022-07-06T14:19:26;2.88;;;1.77;;
16139;SDS011;8175;49.326;12.690;2022-07-06T14:21:52;1.38;;;1.27;;
16139;SDS011;8175;49.326;12.690;2022-07-06T14:24:17;1.40;;;1.30;;
16139;SDS011;8175;49.326;12.690;2022-07-06T14:26:43;1.88;;;1.30;;
16139;SDS011;8175;49.326;12.690;2022-07-06T14:29:09;1.65;;;1.10;;
16139;SDS011;8175;49.326;12.690;2022-07-06T14:31:34;2.25;;;1.10;;
16139;SDS011;8175;49.326;12.690;2022-07-06T14:34:00;2.58;;;0.90;;
16139;SDS011;8175;49.326;12.690;2022-07-06T14:36:26;1.85;;;1.30;;
16139;SDS011;8175;49.326;12.690;2022-07-06T14:38:52;0.90;;;0.90;;
16139;SDS011;8175;49.326;12.690;2022-07-06T14:41:17;1.77;;;1.10;;
16139;SDS011;8175;49.326;12.690;2022-07-06T14:43:43;1.13;;;1.00;;
16139;SDS011;8175;49.326;12.690;2022-07-06T14:46:09;2.08;;;1.27;;
16139;SDS011;8175;49.326;12.690;2022-07-06T14:48:34;0.93;;;0.75;;
16139;SDS011;8175;49.326;12.690;2022-07-06T14:51:00;1.35;;;1.10;;
16139;SDS011;8175;49.326;12.690;2022-07-06T14:53:26;1.00;;;0.82;;
16139;SDS011;8175;49.326;12.690;2022-07-06T14:55:51;1.05;;;1.00;;
16139;SDS011;8175;49.326;12.690;2022-07-06T14:58:17;1.30;;;0.90;;
16139;SDS011;8175;49.326;12.690;2022-07-06T15:00:46;1.60;;;1.05;;
16139;SDS011;8175;49.326;12.690;2022-07-06T15:03:12;1.30;;;1.20;;
16139;SDS011;8175;49.326;12.690;2022-07-06T15:05:38;2.15;;;1.17;;
16139;SDS011;8175;49.326;12.690;2022-07-06T15:08:04;0.95;;;0.95;;